Time;durP1;ratioP1;P1;durP2;ratioP2;P2;SDS_P1;SDS_P2;PMS_P1;PMS_P2;Temp;Humidity;BMP_temperature;BMP_pressure;BME280_temperature;BME280_humidity;BME280_pressure;Samples;Min_cycle;Max_cycle;Signal;HPM_P1;HPM_P2
2021/05/04 00:01:55;;;;;;;9.13;6.50;;;;;;;;;;5073582;28;20256;-82
2021/05/04 00:04:20;;;;;;;9.97;6.33;;;;;;;;;;5073806;28;20182;-82
2021/05/04 00:06:45;;;;;;;8.80;6.40;;;;;;;;;;5073267;28;20613;-82
2021/05/04 00:09:11;;;;;;;9.93;7.20;;;;;;;;;;5073478;28;20494;-82
2021/05/04 00:11:36;;;;;;;9.67;7.07;;;;;;;;;;5073311;28;20175;-82
2021/05/04 00:14:02;;;;;;;10.50;6.83;;;;;;;;;;5073147;28;20235;-82
2021/05/04 00:16:27;;;;;;;8.90;7.00;;;;;;;;;;5073456;28;20669;-82
2021/05/04 00:18:52;;;;;;;9.80;7.50;;;;;;;;;;5073104;28;20203;-82
2021/05/04 00:21:17;;;;;;;8.83;7.13;;;;;;;;;;5073899;28;20175;-82
2021/05/04 00:23:43;;;;;;;9.20;6.50;;;;;;;;;;5073450;28;20182;-82
2021/05/04 00:26:09;;;;;;;7.03;6.10;;;;;;;;;;5073619;28;20171;-82
2021/05/04 00:28:35;;;;;;;9.63;6.27;;;;;;;;;;5073253;28;20625;-82
2021/05/04 00:31:00;;;;;;;8.77;6.57;;;;;;;;;;5074799;28;20171;-82
2021/05/04 00:33:25;;;;;;;8.57;6.77;;;;;;;;;;5077150;28;20199;-82
2021/05/04 00:35:51;;;;;;;8.80;6.13;;;;;;;;;;5076963;28;20171;-82
2021/05/04 00:38:16;;;;;;;9.53;6.80;;;;;;;;;;5077206;28;20163;-82
2021/05/04 00:40:42;;;;;;;8.57;6.47;;;;;;;;;;5077232;28;20179;-82
2021/05/04 00:43:07;;;;;;;8.50;6.30;;;;;;;;;;5077363;28;20194;-82
2021/05/04 00:45:32;;;;;;;8.23;6.10;;;;;;;;;;5076992;28;20163;-82
2021/05/04 00:47:58;;;;;;;7.93;6.30;;;;;;;;;;5076746;28;20217;-82
2021/05/04 00:50:23;;;;;;;7.87;6.23;;;;;;;;;;5076988;28;20167;-82
2021/05/04 00:52:48;;;;;;;9.40;6.43;;;;;;;;;;5076385;28;20172;-82
2021/05/04 00:55:14;;;;;;;9.87;7.00;;;;;;;;;;5076268;28;20258;-82
2021/05/04 00:57:40;;;;;;;8.23;6.30;;;;;;;;;;5076599;28;20171;-82
2021/05/04 01:00:06;;;;;;;8.63;6.33;;;;;;;;;;5077089;28;20245;-82
2021/05/04 01:02:32;;;;;;;8.60;6.60;;;;;;;;;;5076526;28;20255;-82
2021/05/04 01:04:58;;;;;;;9.40;7.03;;;;;;;;;;5076200;28;20186;-82
2021/05/04 01:07:23;;;;;;;9.10;6.70;;;;;;;;;;5076738;28;20171;-82
2021/05/04 01:09:48;;;;;;;9.40;7.10;;;;;;;;;;5076786;28;20656;-82
2021/05/04 01:12:14;;;;;;;9.30;7.17;;;;;;;;;;5076981;28;20163;-82
2021/05/04 01:14:39;;;;;;;10.13;7.37;;;;;;;;;;5075876;28;20214;-82
2021/05/04 01:17:05;;;;;;;9.73;7.77;;;;;;;;;;5075744;28;20219;-82
2021/05/04 01:19:30;;;;;;;8.23;7.03;;;;;;;;;;5076788;28;20205;-82
2021/05/04 01:21:56;;;;;;;7.97;6.47;;;;;;;;;;5075874;28;20177;-82
2021/05/04 01:24:21;;;;;;;8.83;6.87;;;;;;;;;;5076658;28;20258;-82
2021/05/04 01:26:47;;;;;;;8.07;6.43;;;;;;;;;;5076110;28;20171;-82
2021/05/04 01:29:13;;;;;;;8.43;6.23;;;;;;;;;;5076073;28;20171;-82
2021/05/04 01:31:39;;;;;;;8.47;6.30;;;;;;;;;;5076045;28;20255;-82
2021/05/04 01:34:06;;;;;;;6.23;5.63;;;;;;;;;;5075668;28;20195;-82
2021/05/04 01:36:31;;;;;;;9.27;6.60;;;;;;;;;;5075656;28;20209;-82
2021/05/04 01:38:56;;;;;;;9.00;6.00;;;;;;;;;;5075847;28;20199;-82
2021/05/04 01:41:22;;;;;;;7.07;5.80;;;;;;;;;;5075111;28;20173;-82
2021/05/04 01:43:47;;;;;;;10.83;5.73;;;;;;;;;;5075756;28;20225;-82
2021/05/04 01:46:13;;;;;;;9.10;6.30;;;;;;;;;;5075907;28;20167;-82
2021/05/04 01:48:38;;;;;;;7.57;5.60;;;;;;;;;;5075437;28;20250;-82
2021/05/04 01:51:03;;;;;;;6.10;5.50;;;;;;;;;;5075347;28;20637;-82
2021/05/04 01:53:29;;;;;;;8.17;5.67;;;;;;;;;;5075207;28;20195;-82
2021/05/04 01:55:54;;;;;;;10.00;6.37;;;;;;;;;;5075515;28;20175;-82
2021/05/04 01:58:20;;;;;;;10.70;7.17;;;;;;;;;;5075688;28;20171;-82
2021/05/04 02:00:45;;;;;;;8.37;6.83;;;;;;;;;;5075685;28;20265;-82
2021/05/04 02:03:10;;;;;;;9.33;6.70;;;;;;;;;;5075649;28;20195;-82
2021/05/04 02:05:36;;;;;;;9.07;6.90;;;;;;;;;;5075344;28;20171;-82
2021/05/04 02:08:01;;;;;;;8.40;6.93;;;;;;;;;;5075272;28;20201;-81
2021/05/04 02:10:26;;;;;;;8.77;6.63;;;;;;;;;;5075233;28;20168;-81
2021/05/04 02:12:52;;;;;;;9.07;6.90;;;;;;;;;;5075084;28;20164;-82
2021/05/04 02:15:17;;;;;;;9.97;7.00;;;;;;;;;;5075100;28;20233;-81
2021/05/04 02:17:42;;;;;;;9.97;7.10;;;;;;;;;;5075532;28;20680;-81
2021/05/04 02:20:08;;;;;;;9.43;7.07;;;;;;;;;;5075186;28;20610;-81
2021/05/04 02:22:34;;;;;;;9.47;7.83;;;;;;;;;;5074823;28;20262;-82
2021/05/04 02:25:00;;;;;;;10.23;8.13;;;;;;;;;;5074749;28;20186;-82
2021/05/04 02:27:25;;;;;;;11.20;8.63;;;;;;;;;;5074608;28;20626;-82
2021/05/04 02:29:50;;;;;;;8.90;7.10;;;;;;;;;;5074551;28;20168;-82
2021/05/04 02:32:16;;;;;;;10.23;7.30;;;;;;;;;;5074661;28;20174;-82
2021/05/04 02:34:41;;;;;;;8.33;7.00;;;;;;;;;;5074754;28;20548;-82
2021/05/04 02:37:06;;;;;;;12.53;7.70;;;;;;;;;;5074916;28;20256;-82
2021/05/04 02:39:32;;;;;;;9.30;7.17;;;;;;;;;;5075004;28;20167;-81
2021/05/04 02:41:57;;;;;;;8.83;7.40;;;;;;;;;;5073445;28;20175;-82
2021/05/04 02:44:22;;;;;;;9.10;6.97;;;;;;;;;;5074841;28;20171;-82
2021/05/04 02:46:48;;;;;;;9.23;7.17;;;;;;;;;;5074734;28;20167;-82
2021/05/04 02:49:13;;;;;;;9.93;7.23;;;;;;;;;;5074482;28;20626;-82
2021/05/04 02:51:38;;;;;;;11.90;7.30;;;;;;;;;;5074110;28;20580;-82
2021/05/04 02:54:04;;;;;;;9.47;6.63;;;;;;;;;;5073862;28;20671;-81
2021/05/04 02:56:30;;;;;;;9.60;7.30;;;;;;;;;;5073022;28;20645;-81
2021/05/04 02:58:55;;;;;;;10.10;7.43;;;;;;;;;;5074621;28;20167;-82
2021/05/04 03:01:20;;;;;;;10.63;7.10;;;;;;;;;;5073952;28;20174;-81
2021/05/04 03:03:46;;;;;;;9.97;7.27;;;;;;;;;;5074192;28;20171;-81
2021/05/04 03:06:11;;;;;;;9.27;7.27;;;;;;;;;;5074431;28;20175;-81
2021/05/04 03:08:36;;;;;;;10.77;8.27;;;;;;;;;;5074364;28;20516;-81
2021/05/04 03:11:01;;;;;;;11.57;8.20;;;;;;;;;;5073834;28;20171;-81
2021/05/04 03:13:29;;;;;;;12.40;8.43;;;;;;;;;;5074202;28;20226;-82
2021/05/04 03:15:54;;;;;;;11.90;8.70;;;;;;;;;;5073481;28;20181;-82
2021/05/04 03:18:20;;;;;;;12.23;8.53;;;;;;;;;;5074400;28;20262;-82
2021/05/04 03:20:45;;;;;;;10.37;8.37;;;;;;;;;;5074046;28;20581;-82
2021/05/04 03:23:11;;;;;;;10.50;7.90;;;;;;;;;;5074266;28;20178;-82
2021/05/04 03:25:36;;;;;;;10.63;8.37;;;;;;;;;;5073714;28;20533;-82
2021/05/04 03:28:02;;;;;;;10.37;8.63;;;;;;;;;;5074185;28;20163;-82
2021/05/04 03:30:27;;;;;;;11.77;8.33;;;;;;;;;;5074166;28;20242;-82
2021/05/04 03:32:53;;;;;;;9.80;8.03;;;;;;;;;;5073962;28;20634;-82
2021/05/04 03:35:18;;;;;;;10.50;8.37;;;;;;;;;;5055849;28;20728;-82
2021/05/04 03:37:44;;;;;;;9.93;8.33;;;;;;;;;;5073926;28;20167;-82
2021/05/04 03:40:09;;;;;;;15.30;9.53;;;;;;;;;;5073631;28;20175;-82
2021/05/04 03:42:35;;;;;;;12.57;8.53;;;;;;;;;;5073764;28;20518;-82
2021/05/04 03:45:00;;;;;;;12.60;9.33;;;;;;;;;;5074018;28;20253;-82
2021/05/04 03:47:25;;;;;;;11.13;8.23;;;;;;;;;;5073710;28;20195;-82
2021/05/04 03:49:51;;;;;;;12.03;8.17;;;;;;;;;;5073693;28;20169;-82
2021/05/04 03:52:16;;;;;;;12.00;8.27;;;;;;;;;;5073730;28;20171;-82
2021/05/04 03:54:42;;;;;;;14.53;8.90;;;;;;;;;;5073644;28;20205;-82
2021/05/04 03:57:07;;;;;;;15.97;10.10;;;;;;;;;;5073910;28;20168;-82
2021/05/04 03:59:33;;;;;;;17.70;10.87;;;;;;;;;;5074485;28;20171;-82
2021/05/04 04:01:58;;;;;;;19.23;10.77;;;;;;;;;;5073639;28;20167;-82
2021/05/04 04:04:23;;;;;;;17.30;9.47;;;;;;;;;;5073260;28;20265;-82
2021/05/04 04:06:49;;;;;;;15.37;8.80;;;;;;;;;;5076747;28;20220;-82
2021/05/04 04:09:14;;;;;;;11.13;7.90;;;;;;;;;;5077270;28;20178;-82
2021/05/04 04:11:39;;;;;;;9.00;7.10;;;;;;;;;;5077246;28;20250;-82
2021/05/04 04:14:05;;;;;;;10.07;8.23;;;;;;;;;;5077560;28;20222;-83
2021/05/04 04:16:30;;;;;;;9.00;7.60;;;;;;;;;;5077088;28;20262;-82
2021/05/04 04:18:55;;;;;;;9.80;8.10;;;;;;;;;;5077576;28;20167;-83
2021/05/04 04:21:21;;;;;;;9.40;8.25;;;;;;;;;;5077031;28;20172;-81
2021/05/04 04:23:46;;;;;;;10.85;8.10;;;;;;;;;;5076950;28;20175;-81
2021/05/04 04:26:11;;;;;;;8.85;8.05;;;;;;;;;;5077162;28;20248;-81
2021/05/04 04:28:37;;;;;;;9.50;8.60;;;;;;;;;;5077125;28;20191;-81
2021/05/04 04:31:02;;;;;;;11.63;9.77;;;;;;;;;;5077143;28;20250;-81
2021/05/04 04:33:28;;;;;;;13.25;10.45;;;;;;;;;;5076780;28;20187;-81
2021/05/04 04:35:53;;;;;;;11.65;9.13;;;;;;;;;;5077565;28;20171;-81
2021/05/04 04:38:19;;;;;;;12.20;9.68;;;;;;;;;;5077000;28;20258;-81
2021/05/04 04:40:45;;;;;;;9.18;8.15;;;;;;;;;;5077540;28;20618;-82
2021/05/04 04:43:11;;;;;;;9.60;8.60;;;;;;;;;;5077136;28;20258;-81
2021/05/04 04:45:36;;;;;;;8.93;8.13;;;;;;;;;;5077457;28;20229;-82
2021/05/04 04:48:01;;;;;;;10.38;8.55;;;;;;;;;;5076884;28;20171;-82
2021/05/04 04:50:27;;;;;;;9.75;8.70;;;;;;;;;;5076558;28;20575;-81
2021/05/04 04:52:52;;;;;;;11.82;8.93;;;;;;;;;;5076704;28;20174;-81
2021/05/04 04:55:18;;;;;;;10.35;8.65;;;;;;;;;;5076611;28;20209;-82
2021/05/04 04:57:43;;;;;;;10.15;9.15;;;;;;;;;;5077165;28;20178;-82
2021/05/04 05:00:08;;;;;;;9.15;8.35;;;;;;;;;;5076817;28;20186;-82
2021/05/04 05:02:34;;;;;;;9.50;8.60;;;;;;;;;;5076565;28;20195;-82
2021/05/04 05:04:59;;;;;;;9.68;8.82;;;;;;;;;;5076691;28;20171;-83
2021/05/04 05:07:24;;;;;;;9.23;8.43;;;;;;;;;;5076307;28;20206;-83
2021/05/04 05:09:50;;;;;;;8.98;7.95;;;;;;;;;;5076442;28;20218;-82
2021/05/04 05:12:15;;;;;;;8.70;7.90;;;;;;;;;;5076094;28;20209;-83
2021/05/04 05:14:41;;;;;;;10.10;8.10;;;;;;;;;;5076418;28;20207;-83
2021/05/04 05:17:07;;;;;;;9.27;8.30;;;;;;;;;;5075717;28;20570;-83
2021/05/04 05:19:32;;;;;;;8.93;7.65;;;;;;;;;;5076315;28;20159;-83
2021/05/04 05:21:59;;;;;;;8.35;7.55;;;;;;;;;;5076271;28;20178;-83
2021/05/04 05:24:25;;;;;;;8.10;7.40;;;;;;;;;;5076543;28;20174;-83
2021/05/04 05:26:51;;;;;;;8.55;7.68;;;;;;;;;;5058073;28;20523;-83
2021/05/04 05:29:16;;;;;;;8.68;7.78;;;;;;;;;;5075759;28;20163;-83
2021/05/04 05:31:42;;;;;;;8.77;7.88;;;;;;;;;;5075752;28;20170;-83
2021/05/04 05:34:07;;;;;;;8.70;7.85;;;;;;;;;;5076164;28;20191;-83
2021/05/04 05:36:32;;;;;;;8.35;7.53;;;;;;;;;;5075888;28;20175;-83
2021/05/04 05:38:58;;;;;;;8.25;7.45;;;;;;;;;;5075870;28;20167;-83
2021/05/04 05:41:23;;;;;;;8.52;7.72;;;;;;;;;;5075756;28;20537;-83
2021/05/04 05:43:49;;;;;;;7.93;7.22;;;;;;;;;;5075903;28;20228;-83
2021/05/04 05:46:14;;;;;;;7.57;6.82;;;;;;;;;;5075477;28;20229;-83
2021/05/04 05:48:41;;;;;;;8.13;7.32;;;;;;;;;;5075721;28;20189;-83
2021/05/04 05:51:07;;;;;;;7.82;7.03;;;;;;;;;;5075679;28;20167;-83
2021/05/04 05:53:32;;;;;;;7.82;7.03;;;;;;;;;;5076064;28;20209;-83
2021/05/04 05:55:57;;;;;;;7.47;6.78;;;;;;;;;;5074262;28;20167;-83
2021/05/04 05:58:23;;;;;;;8.77;6.80;;;;;;;;;;5075548;28;20176;-83
2021/05/04 06:00:48;;;;;;;8.05;6.88;;;;;;;;;;5065826;28;20183;-84
2021/05/04 06:03:14;;;;;;;7.18;6.57;;;;;;;;;;5055097;28;20179;-83
2021/05/04 06:05:39;;;;;;;8.20;6.70;;;;;;;;;;5072556;28;20236;-84
2021/05/04 06:08:04;;;;;;;6.93;6.25;;;;;;;;;;5075997;28;20171;-83
2021/05/04 06:10:30;;;;;;;7.28;6.40;;;;;;;;;;5074508;28;20226;-83
2021/05/04 06:12:59;;;;;;;6.63;6.03;;;;;;;;;;5075241;28;20548;-83
2021/05/04 06:15:25;;;;;;;7.70;6.28;;;;;;;;;;5059796;28;20207;-84
2021/05/04 06:17:50;;;;;;;6.85;6.22;;;;;;;;;;5055337;28;20298;-83
2021/05/04 06:20:16;;;;;;;6.47;5.90;;;;;;;;;;5054809;28;20571;-85
2021/05/04 06:22:41;;;;;;;6.45;5.95;;;;;;;;;;5055059;28;20186;-84
2021/05/04 06:25:07;;;;;;;7.13;5.55;;;;;;;;;;5054606;28;20172;-84
2021/05/04 06:27:32;;;;;;;6.95;6.22;;;;;;;;;;5054794;28;20187;-84
2021/05/04 06:29:58;;;;;;;5.97;5.40;;;;;;;;;;5053949;28;20168;-84
2021/05/04 06:32:26;;;;;;;5.90;5.40;;;;;;;;;;5055077;28;20171;-84
2021/05/04 06:34:51;;;;;;;6.32;5.72;;;;;;;;;;5054838;28;20208;-84
2021/05/04 06:37:16;;;;;;;6.18;5.68;;;;;;;;;;5064872;28;20182;-83
2021/05/04 06:39:42;;;;;;;6.07;5.57;;;;;;;;;;5074449;28;20636;-83
2021/05/04 06:42:07;;;;;;;5.88;4.90;;;;;;;;;;5074628;28;20172;-83
2021/05/04 06:44:33;;;;;;;5.88;5.38;;;;;;;;;;5074373;28;20247;-83
2021/05/04 06:46:58;;;;;;;5.80;5.13;;;;;;;;;;5074396;28;20163;-83
2021/05/04 06:49:23;;;;;;;5.88;5.20;;;;;;;;;;5074639;28;20514;-83
2021/05/04 06:51:48;;;;;;;7.65;6.85;;;;;;;;;;5074088;28;20171;-82
2021/05/04 06:54:14;;;;;;;5.53;5.13;;;;;;;;;;5074054;28;20270;-82
2021/05/04 06:56:39;;;;;;;5.60;5.10;;;;;;;;;;5071458;28;20233;-83
2021/05/04 06:59:06;;;;;;;6.20;4.90;;;;;;;;;;5074251;28;20266;-83
2021/05/04 07:01:31;;;;;;;7.05;5.22;;;;;;;;;;5074115;28;20563;-83
2021/05/04 07:03:56;;;;;;;5.20;4.70;;;;;;;;;;5074345;28;20203;-83
2021/05/04 07:06:22;;;;;;;4.70;4.40;;;;;;;;;;5073336;28;20250;-83
2021/05/04 07:08:47;;;;;;;5.43;4.65;;;;;;;;;;5073012;28;20175;-83
2021/05/04 07:11:13;;;;;;;5.60;5.10;;;;;;;;;;5073617;28;20167;-83
2021/05/04 07:13:38;;;;;;;7.25;5.03;;;;;;;;;;5073734;28;20187;-83
2021/05/04 07:16:04;;;;;;;4.53;4.15;;;;;;;;;;5073983;28;20222;-83
2021/05/04 07:18:29;;;;;;;5.07;4.68;;;;;;;;;;5063891;28;20179;-83
2021/05/04 07:20:54;;;;;;;5.28;4.85;;;;;;;;;;5054897;28;20619;-83
2021/05/04 07:23:20;;;;;;;4.80;4.40;;;;;;;;;;5054207;28;20172;-83
2021/05/04 07:25:45;;;;;;;4.70;4.30;;;;;;;;;;5054086;28;20171;-83
2021/05/04 07:28:10;;;;;;;6.00;5.50;;;;;;;;;;5054439;28;20164;-83
2021/05/04 07:30:41;;;;;;;6.13;4.68;;;;;;;;;;5053461;28;20211;-83
2021/05/04 07:33:06;;;;;;;5.35;4.85;;;;;;;;;;5054142;28;20653;-83
2021/05/04 07:35:31;;;;;;;4.78;4.35;;;;;;;;;;5054054;28;20176;-83
2021/05/04 07:37:57;;;;;;;4.97;4.57;;;;;;;;;;5054016;28;20164;-83
2021/05/04 07:40:23;;;;;;;5.20;4.70;;;;;;;;;;5053356;28;20179;-83
2021/05/04 07:42:48;;;;;;;4.50;4.15;;;;;;;;;;5053973;28;20168;-83
2021/05/04 07:45:13;;;;;;;4.68;4.38;;;;;;;;;;5052376;28;20218;-83
2021/05/04 07:47:39;;;;;;;5.13;4.72;;;;;;;;;;5053986;28;20172;-83
2021/05/04 07:50:07;;;;;;;5.03;4.63;;;;;;;;;;5053674;28;20602;-83
2021/05/04 07:52:32;;;;;;;5.68;5.18;;;;;;;;;;5065947;28;20171;-83
2021/05/04 07:54:58;;;;;;;5.38;4.97;;;;;;;;;;5073754;28;20553;-83
2021/05/04 07:57:23;;;;;;;5.63;5.13;;;;;;;;;;5074216;28;20513;-83
2021/05/04 07:59:51;;;;;;;5.18;4.68;;;;;;;;;;5072512;28;20258;-85
2021/05/04 08:02:16;;;;;;;4.68;4.28;;;;;;;;;;5074058;28;20167;-82
2021/05/04 08:04:41;;;;;;;4.50;4.20;;;;;;;;;;5062511;28;20211;-83
2021/05/04 08:07:08;;;;;;;4.72;4.32;;;;;;;;;;5053249;28;20175;-83
2021/05/04 08:09:34;;;;;;;5.22;4.43;;;;;;;;;;5052305;28;20203;-83
2021/05/04 08:11:59;;;;;;;4.97;4.50;;;;;;;;;;5053806;28;20648;-83
2021/05/04 08:14:25;;;;;;;6.45;5.72;;;;;;;;;;5053383;28;20223;-83
2021/05/04 08:16:51;;;;;;;4.80;4.40;;;;;;;;;;5053222;28;20227;-84
2021/05/04 08:19:16;;;;;;;5.30;4.80;;;;;;;;;;5053744;28;20175;-85
2021/05/04 08:21:43;;;;;;;4.60;4.28;;;;;;;;;;5053644;28;20603;-83
2021/05/04 08:24:10;;;;;;;5.05;4.45;;;;;;;;;;5053355;28;20650;-84
2021/05/04 08:26:35;;;;;;;4.95;4.55;;;;;;;;;;5053336;28;20172;-84
2021/05/04 08:29:01;;;;;;;4.63;4.22;;;;;;;;;;5052997;28;20206;-84
2021/05/04 08:31:26;;;;;;;4.93;4.53;;;;;;;;;;5054108;28;20172;-85
2021/05/04 08:33:52;;;;;;;4.90;4.50;;;;;;;;;;5052884;28;20649;-85
2021/05/04 08:36:17;;;;;;;5.00;4.50;;;;;;;;;;5053820;28;20512;-85
2021/05/04 08:38:42;;;;;;;5.30;4.60;;;;;;;;;;5053440;28;20167;-83
2021/05/04 08:41:08;;;;;;;5.18;4.68;;;;;;;;;;5052904;28;20179;-85
2021/05/04 08:43:34;;;;;;;4.50;4.20;;;;;;;;;;5035175;28;20207;-85
2021/05/04 08:46:00;;;;;;;5.10;4.70;;;;;;;;;;5053145;28;20168;-85
2021/05/04 08:48:26;;;;;;;4.47;4.18;;;;;;;;;;5053395;28;20184;-84
2021/05/04 08:50:55;;;;;;;4.90;4.50;;;;;;;;;;5053117;28;20183;-85
2021/05/04 08:53:21;;;;;;;4.80;4.40;;;;;;;;;;5057112;28;20176;-85
2021/05/04 08:55:46;;;;;;;9.17;4.47;;;;;;;;;;5056678;28;20197;-84
2021/05/04 08:58:11;;;;;;;5.10;4.60;;;;;;;;;;5056553;28;20164;-85
2021/05/04 09:00:37;;;;;;;5.20;4.70;;;;;;;;;;5056832;28;20267;-86
2021/05/04 09:03:19;;;;;;;4.87;4.47;;;;;;;;;;5056236;28;20172;-85
2021/05/04 09:05:55;;;;;;;5.30;4.80;;;;;;;;;;5057118;28;20203;-85
2021/05/04 09:08:47;;;;;;;4.83;4.40;;;;;;;;;;5056304;28;20175;-85
2021/05/04 09:11:23;;;;;;;4.87;4.40;;;;;;;;;;5057187;28;20160;-84
2021/05/04 09:13:54;;;;;;;4.73;4.37;;;;;;;;;;5055908;28;20290;-85
2021/05/04 09:16:29;;;;;;;4.90;4.50;;;;;;;;;;5056342;28;20597;-85
2021/05/04 09:21:31;;;;;;;4.93;4.43;;;;;;;;;;5076501;28;20610;-84
2021/05/04 09:23:57;;;;;;;4.27;3.90;;;;;;;;;;5075949;28;20285;-84
2021/05/04 09:26:32;;;;;;;4.67;4.27;;;;;;;;;;5076273;28;20213;-84
2021/05/04 09:28:59;;;;;;;5.07;4.23;;;;;;;;;;5076195;28;20170;-85
2021/05/04 09:31:28;;;;;;;4.63;4.23;;;;;;;;;;5075598;28;20167;-85
2021/05/04 09:33:54;;;;;;;6.33;4.07;;;;;;;;;;5076230;28;20640;-84
2021/05/04 09:36:38;;;;;;;4.30;3.90;;;;;;;;;;5075501;28;20183;-83
2021/05/04 09:39:04;;;;;;;5.10;4.60;;;;;;;;;;5076685;28;20175;-83
2021/05/04 09:41:29;;;;;;;4.73;4.33;;;;;;;;;;5076375;28;20506;-84
2021/05/04 09:43:55;;;;;;;4.23;3.93;;;;;;;;;;5075818;28;20199;-84
2021/05/04 09:46:38;;;;;;;5.00;4.13;;;;;;;;;;5075955;28;20551;-84
2021/05/04 09:49:22;;;;;;;4.90;4.40;;;;;;;;;;5075784;28;20586;-83
2021/05/04 09:51:49;;;;;;;4.77;4.37;;;;;;;;;;5075424;28;20231;-83
2021/05/04 09:54:22;;;;;;;4.67;4.27;;;;;;;;;;5075566;28;20575;-83
2021/05/04 09:56:48;;;;;;;4.50;4.10;;;;;;;;;;5076145;28;20170;-84
2021/05/04 09:59:13;;;;;;;4.53;4.13;;;;;;;;;;5075860;28;20175;-83
2021/05/04 10:01:39;;;;;;;4.60;4.20;;;;;;;;;;5071017;28;20175;-84
2021/05/04 10:04:06;;;;;;;5.07;4.47;;;;;;;;;;5071423;28;20345;-84
2021/05/04 10:06:31;;;;;;;4.87;4.13;;;;;;;;;;5074783;28;20329;-84
2021/05/04 10:08:57;;;;;;;4.60;4.20;;;;;;;;;;5074356;28;20661;-84
2021/05/04 10:11:22;;;;;;;5.07;4.67;;;;;;;;;;5075001;28;20641;-83
2021/05/04 10:13:52;;;;;;;4.80;3.83;;;;;;;;;;5075327;28;20214;-83
2021/05/04 10:16:22;;;;;;;7.00;4.20;;;;;;;;;;5075036;28;20259;-83
2021/05/04 10:18:47;;;;;;;4.40;4.00;;;;;;;;;;5075605;28;20193;-83
2021/05/04 10:21:12;;;;;;;4.90;3.90;;;;;;;;;;5068455;28;20179;-84
2021/05/04 10:23:41;;;;;;;3.93;3.53;;;;;;;;;;5051768;28;20204;-84
2021/05/04 10:26:14;;;;;;;3.73;3.43;;;;;;;;;;5055614;28;20172;-84
2021/05/04 10:28:40;;;;;;;3.83;3.53;;;;;;;;;;5054488;28;20210;-83
2021/05/04 10:31:06;;;;;;;3.70;3.40;;;;;;;;;;5055234;28;20172;-83
2021/05/04 10:33:32;;;;;;;3.83;3.53;;;;;;;;;;5054846;28;20234;-83
2021/05/04 10:35:58;;;;;;;4.40;4.00;;;;;;;;;;5054840;28;20180;-85
2021/05/04 10:38:24;;;;;;;3.80;3.50;;;;;;;;;;5054739;28;20577;-84
2021/05/04 10:41:00;;;;;;;5.77;3.70;;;;;;;;;;5054733;28;20187;-83
2021/05/04 10:43:25;;;;;;;4.97;4.07;;;;;;;;;;5053949;28;20226;-84
2021/05/04 10:45:54;;;;;;;3.90;3.60;;;;;;;;;;5036757;28;20614;-83
2021/05/04 10:48:41;;;;;;;4.33;3.93;;;;;;;;;;5054604;28;20179;-83
2021/05/04 10:51:14;;;;;;;4.53;4.17;;;;;;;;;;5055207;28;20168;-83
2021/05/04 10:53:52;;;;;;;4.13;3.67;;;;;;;;;;5054640;28;20190;-83
2021/05/04 10:56:17;;;;;;;4.07;3.70;;;;;;;;;;5055038;28;20251;-84
2021/05/04 10:58:44;;;;;;;3.87;3.47;;;;;;;;;;5054338;28;20259;-83
2021/05/04 11:01:09;;;;;;;4.10;3.80;;;;;;;;;;5068035;28;20163;-83
2021/05/04 11:03:37;;;;;;;3.40;3.20;;;;;;;;;;5073882;28;20198;-84
2021/05/04 11:06:06;;;;;;;4.37;3.60;;;;;;;;;;5073800;28;20167;-83
2021/05/04 11:08:43;;;;;;;4.13;3.83;;;;;;;;;;5071195;28;20523;-84
2021/05/04 11:11:18;;;;;;;4.63;3.50;;;;;;;;;;5073530;28;20171;-84
2021/05/04 11:13:47;;;;;;;4.10;3.70;;;;;;;;;;5073805;28;20197;-84
2021/05/04 11:16:31;;;;;;;4.03;3.43;;;;;;;;;;5060994;28;20255;-85
2021/05/04 11:19:01;;;;;;;3.50;3.20;;;;;;;;;;5053886;28;20262;-85
2021/05/04 11:21:50;;;;;;;3.57;3.27;;;;;;;;;;5054147;28;20599;-84
2021/05/04 11:24:16;;;;;;;3.80;3.50;;;;;;;;;;5045909;28;20218;-85
2021/05/04 11:26:46;;;;;;;3.63;3.33;;;;;;;;;;5053633;28;20202;-84
2021/05/04 11:29:14;;;;;;;5.83;3.87;;;;;;;;;;5053856;28;20176;-84
2021/05/04 11:31:40;;;;;;;4.63;3.90;;;;;;;;;;5053924;28;20180;-84
2021/05/04 11:34:24;;;;;;;3.97;3.60;;;;;;;;;;5054080;28;20194;-84
2021/05/04 11:36:49;;;;;;;3.63;3.43;;;;;;;;;;5035828;28;20179;-84
2021/05/04 11:39:15;;;;;;;6.27;5.13;;;;;;;;;;5054155;28;20179;-84
2021/05/04 11:41:40;;;;;;;5.97;5.37;;;;;;;;;;5036272;28;20187;-84
2021/05/04 11:44:05;;;;;;;5.43;4.97;;;;;;;;;;5053607;28;20206;-84
2021/05/04 11:46:32;;;;;;;7.13;6.53;;;;;;;;;;5053670;28;20168;-84
2021/05/04 11:49:00;;;;;;;4.10;3.80;;;;;;;;;;5053722;28;20175;-84
2021/05/04 11:51:26;;;;;;;4.70;4.30;;;;;;;;;;5053399;28;20546;-84
2021/05/04 11:53:51;;;;;;;5.47;4.30;;;;;;;;;;5053656;28;20168;-84
2021/05/04 11:56:17;;;;;;;4.83;4.43;;;;;;;;;;5053184;28;20270;-84
2021/05/04 11:58:42;;;;;;;4.60;4.20;;;;;;;;;;5053002;28;20258;-83
2021/05/04 12:01:09;;;;;;;5.67;4.77;;;;;;;;;;5052439;28;20180;-83
2021/05/04 12:03:34;;;;;;;5.10;4.60;;;;;;;;;;5053261;28;20216;-83
2021/05/04 12:06:01;;;;;;;5.10;4.60;;;;;;;;;;5053550;28;20640;-83
2021/05/04 12:08:29;;;;;;;5.00;4.50;;;;;;;;;;5053229;28;20179;-83
2021/05/04 12:10:55;;;;;;;4.60;4.20;;;;;;;;;;5053322;28;20193;-83
2021/05/04 12:13:22;;;;;;;4.50;4.10;;;;;;;;;;5035375;28;20175;-83
2021/05/04 12:15:49;;;;;;;4.90;4.17;;;;;;;;;;5053040;28;20179;-84
2021/05/04 12:18:17;;;;;;;4.60;4.20;;;;;;;;;;5053438;28;20156;-83
2021/05/04 12:20:45;;;;;;;5.13;4.30;;;;;;;;;;5053368;28;20184;-83
2021/05/04 12:23:11;;;;;;;5.47;4.63;;;;;;;;;;5053314;28;20221;-84
2021/05/04 12:25:46;;;;;;;5.83;5.27;;;;;;;;;;5053408;28;20690;-83
2021/05/04 12:28:18;;;;;;;6.10;4.13;;;;;;;;;;5056916;28;20190;-83
2021/05/04 12:30:45;;;;;;;6.73;4.50;;;;;;;;;;5057758;28;20168;-83
2021/05/04 12:33:11;;;;;;;6.43;4.30;;;;;;;;;;5056812;28;20176;-83
2021/05/04 12:35:41;;;;;;;5.07;4.60;;;;;;;;;;5057273;28;20168;-83
2021/05/04 12:38:17;;;;;;;6.20;5.60;;;;;;;;;;5056753;28;20243;-83
2021/05/04 12:40:54;;;;;;;6.47;4.33;;;;;;;;;;5056832;28;20532;-83
2021/05/04 12:43:24;;;;;;;7.37;4.40;;;;;;;;;;5057212;28;20519;-83
2021/05/04 12:45:58;;;;;;;5.13;4.40;;;;;;;;;;5056641;28;20226;-83
2021/05/04 12:48:25;;;;;;;4.60;4.20;;;;;;;;;;5057108;28;20217;-84
2021/05/04 12:50:57;;;;;;;4.80;4.50;;;;;;;;;;5056548;28;20176;-83
2021/05/04 12:53:32;;;;;;;5.30;4.80;;;;;;;;;;5056799;28;20171;-84
2021/05/04 12:56:02;;;;;;;4.50;4.10;;;;;;;;;;5057040;28;20242;-84
2021/05/04 12:58:28;;;;;;;5.43;4.60;;;;;;;;;;5056279;28;20179;-83
2021/05/04 13:01:13;;;;;;;4.97;4.20;;;;;;;;;;5056859;28;20186;-85
2021/05/04 13:03:45;;;;;;;4.43;4.13;;;;;;;;;;5075455;28;20211;-85
2021/05/04 13:06:40;;;;;;;6.80;4.30;;;;;;;;;;5076554;28;20214;-84
2021/05/04 13:09:10;;;;;;;4.73;3.70;;;;;;;;;;5071369;28;20191;-85
2021/05/04 13:11:46;;;;;;;4.50;4.17;;;;;;;;;;5076793;28;20159;-85
2021/05/04 13:14:38;;;;;;;5.73;3.97;;;;;;;;;;5076736;28;20190;-85
2021/05/04 13:20:26;;;;;;;6.43;4.30;;;;;;;;;;5076238;28;20649;-85
2021/05/04 13:31:38;;;;;;;5.43;4.00;;;;;;;;;;5076498;28;20163;-84
2021/05/04 13:34:04;;;;;;;4.40;4.10;;;;;;;;;;5068804;28;20227;-84
2021/05/04 13:36:30;;;;;;;4.60;4.20;;;;;;;;;;5073060;28;20217;-85
2021/05/04 13:44:58;;;;;;;5.37;4.87;;;;;;;;;;5055432;28;20215;-84
2021/05/04 13:47:33;;;;;;;5.67;4.17;;;;;;;;;;5056045;28;20198;-84
2021/05/04 13:49:59;;;;;;;4.70;4.30;;;;;;;;;;5055840;28;20180;-84
2021/05/04 13:52:24;;;;;;;5.27;4.00;;;;;;;;;;5055658;28;20610;-84
2021/05/04 13:54:55;;;;;;;3.73;3.47;;;;;;;;;;5055583;28;20263;-84
2021/05/04 13:57:21;;;;;;;4.57;4.10;;;;;;;;;;5056159;28;20164;-83
2021/05/04 13:59:52;;;;;;;6.30;4.10;;;;;;;;;;5054596;28;20194;-84
2021/05/04 14:02:34;;;;;;;4.33;3.90;;;;;;;;;;5075860;28;20238;-84
2021/05/04 14:05:36;;;;;;;4.60;4.20;;;;;;;;;;5075354;28;20704;-85
2021/05/04 14:26:49;;;;;;;8.13;4.10;;;;;;;;;;5075451;28;20174;-85
2021/05/04 14:29:14;;;;;;;4.47;3.90;;;;;;;;;;5075132;28;20164;-83
2021/05/04 14:31:44;;;;;;;5.17;4.53;;;;;;;;;;5074581;28;20171;-83
2021/05/04 14:34:10;;;;;;;5.83;4.27;;;;;;;;;;5074472;28;20168;-84
2021/05/04 14:39:29;;;;;;;4.30;4.00;;;;;;;;;;5075073;28;20163;-85
2021/05/04 14:47:44;;;;;;;4.30;3.90;;;;;;;;;;5074927;28;20653;-85
2021/05/04 14:58:31;;;;;;;4.50;4.10;;;;;;;;;;5075004;28;20621;-84
2021/05/04 15:01:04;;;;;;;4.50;4.10;;;;;;;;;;5073221;28;20724;-85
2021/05/04 15:03:31;;;;;;;4.53;4.20;;;;;;;;;;5074193;28;20155;-84
2021/05/04 15:05:58;;;;;;;4.57;4.03;;;;;;;;;;5074340;28;20167;-85
2021/05/04 15:08:23;;;;;;;5.07;4.63;;;;;;;;;;5074447;28;20216;-84
2021/05/04 15:10:49;;;;;;;4.77;4.20;;;;;;;;;;5073975;28;20159;-84
2021/05/04 15:13:17;;;;;;;4.90;4.37;;;;;;;;;;5073771;28;20301;-85
2021/05/04 15:23:35;;;;;;;4.60;4.17;;;;;;;;;;5073937;28;20172;-85
2021/05/04 15:26:00;;;;;;;5.13;4.30;;;;;;;;;;5074656;28;20621;-85
2021/05/04 15:28:26;;;;;;;4.63;4.10;;;;;;;;;;5073961;28;20194;-85
2021/05/04 15:30:54;;;;;;;4.43;4.07;;;;;;;;;;5072754;28;20203;-85
2021/05/04 15:33:20;;;;;;;4.50;4.10;;;;;;;;;;5073582;28;20179;-85
2021/05/04 15:35:45;;;;;;;4.60;4.20;;;;;;;;;;5073169;28;20246;-86
2021/05/04 15:38:11;;;;;;;4.50;4.10;;;;;;;;;;5073323;28;20305;-84
2021/05/04 15:40:36;;;;;;;4.90;4.50;;;;;;;;;;5073802;28;20172;-83
2021/05/04 15:43:06;;;;;;;5.00;4.47;;;;;;;;;;5073299;28;20168;-84
2021/05/04 15:46:16;;;;;;;4.60;4.20;;;;;;;;;;5072271;28;20199;-84